This is the latest recevied weather packets stored in our database for station/object DW2488. If no packets are shown the sender has not sent any weather packets the latest 10 day(s).
| Time | Temp. | Humidity | Pressure | Rain* | Wind** | Luminosity | Snow |
|---|---|---|---|---|---|---|---|
| 1777537098 | 18.89° C | 75% | 1029.3 hPa | 0 mm | - | 0 W/m² | - |
| 1777536193 | 18.89° C | 74% | 1029.2 hPa | 0 mm | - | 0 W/m² | - |
| 1777535282 | 19.44° C | 72% | 1029 hPa | 0 mm | - | 0 W/m² | - |
| 1777534366 | 20° C | 71% | 1028.8 hPa | 0 mm | - | 0 W/m² | - |
| 1777533472 | 20.56° C | 69% | 1028.7 hPa | 0 mm | - | 0 W/m² | - |
| 1777532557 | 20.56° C | 69% | 1028.5 hPa | 0 mm | - | 11 W/m² | - |
| 1777531655 | 21.11° C | 69% | 1028.4 hPa | 0 mm | - | 14 W/m² | - |
| 1777530755 | 21.11° C | 68% | 1028.3 hPa | 0 mm | - | 19 W/m² | - |
| 1777529846 | 21.67° C | 67% | 1028.2 hPa | 0 mm | - | 19 W/m² | - |
| 1777528944 | 22.78° C | 65% | 1028.3 hPa | 0 mm | - | 46 W/m² | - |
| 1777528045 | 23.89° C | 61% | 1028.2 hPa | 0 mm | - | 65 W/m² | - |
| 1777527144 | 23.89° C | 60% | 1028.2 hPa | 0 mm | - | 257 W/m² | - |
| 1777526241 | 23.33° C | 61% | 1028.2 hPa | 0 mm | - | 306 W/m² | - |
| 1777525336 | 24.44° C | 59% | 1028.2 hPa | 0 mm | - | 65 W/m² | - |
| 1777524434 | 25.56° C | 55% | 1028.2 hPa | 0 mm | - | 390 W/m² | - |
| 1777523533 | 26.11° C | 52% | 1028.4 hPa | 0 mm | - | 513 W/m² | - |
| 1777522633 | 26.67° C | 44% | 1028.4 hPa | 0 mm | - | 512 W/m² | - |
| 1777521731 | 26.67° C | 43% | 1028.5 hPa | 0 mm | - | 545 W/m² | - |
| 1777520831 | 27.22° C | 46% | 1028.5 hPa | 0 mm | - | 113 W/m² | - |
| 1777519924 | 27.22° C | 48% | 1028.7 hPa | 0 mm | - | 578 W/m² | - |
| 1777519019 | 26.11° C | 50% | 1028.8 hPa | 0 mm | - | 671 W/m² | - |
| 1777518119 | 25.56° C | 54% | 1029.1 hPa | 0 mm | - | 719 W/m² | - |
| 1777517214 | 25° C | 54% | 1029.3 hPa | 0 mm | - | 687 W/m² | - |
| 1777516312 | 25° C | 54% | 1029.5 hPa | 0 mm | - | 100 W/m² | - |
| 1777515411 | 24.44° C | 55% | 1029.8 hPa | 0 mm | - | 715 W/m² | - |
* Rain latest hour (hover to see other rain measurements)
** Current wind speed in m/s (hover to see current wind gust speed)